createdAt,value
2018-05-09T00:00:18.055Z,36.51
2018-05-09T00:00:58.590Z,36.51
2018-05-09T00:01:39.112Z,36.51
2018-05-09T00:02:19.637Z,36.51
2018-05-09T00:03:00.153Z,36.51
2018-05-09T00:03:40.690Z,36.51
2018-05-09T00:04:21.222Z,36.4
2018-05-09T00:05:01.742Z,36.42
2018-05-09T00:05:42.272Z,36.51
2018-05-09T00:06:22.804Z,36.49
2018-05-09T00:07:03.326Z,36.49
2018-05-09T00:07:43.846Z,36.49
2018-05-09T00:08:24.376Z,36.49
2018-05-09T00:09:04.905Z,36.51
2018-05-09T00:09:45.435Z,36.4
2018-05-09T00:10:25.959Z,36.4
2018-05-09T00:11:06.482Z,36.4
2018-05-09T00:11:46.999Z,36.59
2018-05-09T00:12:27.533Z,36.59
2018-05-09T00:13:08.047Z,36.59
2018-05-09T00:13:48.565Z,36.69
2018-05-09T00:14:29.102Z,36.69
2018-05-09T00:15:09.623Z,36.59
2018-05-09T00:15:50.149Z,36.79
2018-05-09T00:16:30.679Z,36.79
2018-05-09T00:17:11.193Z,36.79
2018-05-09T00:17:51.708Z,36.79
2018-05-09T00:18:32.230Z,36.88
2018-05-09T00:19:12.756Z,36.88
2018-05-09T00:19:53.283Z,36.88
2018-05-09T00:20:33.813Z,36.88
2018-05-09T00:21:14.333Z,36.79
2018-05-09T00:21:54.864Z,36.79
2018-05-09T00:22:35.397Z,36.88
2018-05-09T00:23:15.922Z,36.69
2018-05-09T00:23:56.437Z,36.88
2018-05-09T00:24:36.969Z,36.79
2018-05-09T00:25:17.489Z,36.69
2018-05-09T00:25:58.078Z,36.79
2018-05-09T00:26:38.531Z,36.79
2018-05-09T00:27:19.063Z,36.88
2018-05-09T00:27:59.585Z,36.79
2018-05-09T00:28:40.117Z,36.88
2018-05-09T00:29:20.637Z,36.79
2018-05-09T00:30:01.163Z,36.79
2018-05-09T00:30:41.681Z,36.88
2018-05-09T00:31:22.204Z,36.69
2018-05-09T00:32:02.727Z,36.79
2018-05-09T00:32:43.256Z,36.88
2018-05-09T00:33:23.784Z,36.69
2018-05-09T00:34:04.314Z,36.59
2018-05-09T00:34:44.842Z,36.69
2018-05-09T00:35:25.371Z,36.69
2018-05-09T00:36:05.894Z,36.79
2018-05-09T00:36:46.417Z,37.07
2018-05-09T00:37:26.940Z,37.07
2018-05-09T00:38:07.472Z,36.88
2018-05-09T00:38:47.995Z,37.07
2018-05-09T00:39:28.616Z,37.16
2018-05-09T00:40:09.040Z,36.98
2018-05-09T00:40:49.574Z,36.98
2018-05-09T00:41:30.095Z,36.96
2018-05-09T00:42:10.620Z,36.86
2018-05-09T00:42:51.131Z,36.98
2018-05-09T00:43:31.652Z,36.79
2018-05-09T00:44:12.170Z,36.79
2018-05-09T00:44:52.694Z,36.77
2018-05-09T00:45:33.223Z,37.05
2018-05-09T00:46:13.755Z,37.05
2018-05-09T00:46:54.289Z,37.05
2018-05-09T00:47:34.808Z,37.07
2018-05-09T00:48:15.313Z,36.98
2018-05-09T00:48:55.837Z,36.96
2018-05-09T00:49:36.350Z,36.86
2018-05-09T00:50:16.874Z,36.96
2018-05-09T00:50:57.408Z,36.86
2018-05-09T00:51:37.927Z,37.05
2018-05-09T00:52:18.453Z,37.05
2018-05-09T00:52:58.979Z,36.96
2018-05-09T00:53:39.504Z,36.96
2018-05-09T00:54:20.034Z,36.96
2018-05-09T00:55:00.557Z,36.86
2018-05-09T00:55:41.082Z,36.86
2018-05-09T00:56:21.617Z,37.05
2018-05-09T00:57:02.143Z,36.86
2018-05-09T00:57:42.660Z,37.15
2018-05-09T00:58:23.187Z,37.05
2018-05-09T00:59:03.718Z,36.96
2018-05-09T00:59:44.250Z,37.05
2018-05-09T01:00:24.769Z,37.05
2018-05-09T01:01:05.294Z,36.96
2018-05-09T01:01:45.827Z,37.05
2018-05-09T01:02:26.354Z,36.96
2018-05-09T01:03:06.872Z,37.05
2018-05-09T01:03:47.389Z,36.96
2018-05-09T01:04:27.915Z,36.96
2018-05-09T01:05:08.443Z,37.15
2018-05-09T01:05:48.969Z,37.15
2018-05-09T01:06:29.495Z,37.15
2018-05-09T01:07:10.027Z,37.24
2018-05-09T01:07:50.554Z,37.34
2018-05-09T01:08:31.078Z,37.24
2018-05-09T01:09:11.607Z,37.34
2018-05-09T01:09:52.141Z,37.24
2018-05-09T01:10:32.664Z,37.34
2018-05-09T01:11:13.192Z,37.32
2018-05-09T01:11:53.697Z,37.43
2018-05-09T01:12:34.206Z,37.13
2018-05-09T01:13:14.695Z,37.23
2018-05-09T01:13:55.219Z,37.32
2018-05-09T01:14:35.742Z,37.53
2018-05-09T01:15:16.265Z,37.13
2018-05-09T01:15:56.795Z,37.43
2018-05-09T01:16:37.322Z,37.53
2018-05-09T01:17:17.844Z,37.41
2018-05-09T01:17:58.372Z,37.23
2018-05-09T01:18:38.904Z,37.23
2018-05-09T01:19:19.431Z,37.51
2018-05-09T01:19:59.943Z,37.41
2018-05-09T01:20:40.470Z,37.32
2018-05-09T01:21:20.999Z,37.32
2018-05-09T01:22:01.527Z,37.32
2018-05-09T01:22:42.054Z,37.23
2018-05-09T01:23:22.586Z,37.41
2018-05-09T01:24:03.106Z,37.41
2018-05-09T01:24:43.637Z,37.41
2018-05-09T01:25:24.168Z,37.32
2018-05-09T01:26:04.687Z,37.23
2018-05-09T01:26:45.221Z,37.23
2018-05-09T01:27:25.745Z,37.23
2018-05-09T01:28:06.272Z,37.13
2018-05-09T01:28:46.798Z,37.13
2018-05-09T01:29:27.330Z,37.13
2018-05-09T01:30:07.848Z,37.23
2018-05-09T01:30:48.413Z,37.13
2018-05-09T01:31:28.893Z,37.61
2018-05-09T01:32:09.408Z,37.61
2018-05-09T01:32:49.929Z,37.61
2018-05-09T01:33:30.456Z,37.51
2018-05-09T01:34:10.981Z,37.51
2018-05-09T01:34:51.502Z,37.61
2018-05-09T01:35:32.026Z,37.23
2018-05-09T01:36:12.540Z,37.61
2018-05-09T01:36:53.068Z,37.41
2018-05-09T01:37:33.596Z,37.51
2018-05-09T01:38:14.125Z,37.51
2018-05-09T01:38:54.649Z,37.51
2018-05-09T01:39:35.172Z,37.41
2018-05-09T01:40:15.690Z,37.32
2018-05-09T01:40:56.214Z,37.32
2018-05-09T01:41:36.734Z,37.32
2018-05-09T01:42:17.240Z,37.32
2018-05-09T01:42:57.759Z,37.51
2018-05-09T01:43:38.269Z,37.32
2018-05-09T01:44:18.795Z,37.41
2018-05-09T01:44:59.321Z,37.32
2018-05-09T01:45:39.846Z,37.41
2018-05-09T01:46:20.372Z,37.23
2018-05-09T01:47:00.907Z,37.23
2018-05-09T01:47:41.431Z,37.51
2018-05-09T01:48:21.959Z,37.3
2018-05-09T01:49:02.478Z,37.23
2018-05-09T01:49:43.025Z,37.32
2018-05-09T01:50:23.516Z,37.32
2018-05-09T01:51:04.033Z,37.41
2018-05-09T01:51:44.568Z,37.13
2018-05-09T01:52:25.098Z,37.51
2018-05-09T01:53:05.607Z,37.23
2018-05-09T01:53:46.130Z,37.13
2018-05-09T01:54:26.653Z,37.23
2018-05-09T01:55:07.179Z,37.13
2018-05-09T01:55:48.105Z,37.41
2018-05-09T01:56:28.627Z,37.41
2018-05-09T01:57:09.161Z,37.41
2018-05-09T01:57:49.698Z,37.41
2018-05-09T01:58:30.217Z,37.41
2018-05-09T01:59:10.745Z,37.41
2018-05-09T01:59:51.272Z,37.32
2018-05-09T02:00:31.801Z,37.32
2018-05-09T02:01:12.312Z,37.32
2018-05-09T02:01:52.840Z,37.32
2018-05-09T02:02:33.364Z,37.32
2018-05-09T02:03:13.886Z,37.23
2018-05-09T02:03:54.406Z,37.32
2018-05-09T02:04:34.932Z,37.32
2018-05-09T02:05:15.465Z,37.23
2018-05-09T02:05:55.997Z,37.23
2018-05-09T02:06:36.533Z,37.23
2018-05-09T02:07:17.038Z,37.41
2018-05-09T02:07:57.569Z,37.41
2018-05-09T02:08:38.086Z,37.32
2018-05-09T02:09:18.609Z,37.32
2018-05-09T02:09:59.135Z,37.32
2018-05-09T02:10:39.653Z,37.41
2018-05-09T02:11:20.180Z,37.41
2018-05-09T02:12:00.704Z,37.32
2018-05-09T02:12:41.229Z,37.13
2018-05-09T02:13:21.755Z,37.51
2018-05-09T02:14:02.284Z,37.41
2018-05-09T02:14:42.863Z,37.32
2018-05-09T02:15:23.335Z,37.32
2018-05-09T02:16:03.864Z,37.41
2018-05-09T02:16:44.401Z,37.41
2018-05-09T02:17:24.916Z,37.41
2018-05-09T02:18:05.437Z,37.13
2018-05-09T02:18:45.956Z,37.23
2018-05-09T02:19:26.492Z,37.32
2018-05-09T02:20:06.993Z,37.32
2018-05-09T02:20:47.528Z,37.32
2018-05-09T02:21:28.026Z,37.23
2018-05-09T02:22:08.532Z,37.7
2018-05-09T02:22:49.059Z,37.8
2018-05-09T02:23:29.556Z,37.41
2018-05-09T02:24:10.086Z,37.61
2018-05-09T02:24:50.588Z,37.32
2018-05-09T02:25:31.129Z,37.23
2018-05-09T02:26:11.643Z,37.23
2018-05-09T02:26:52.162Z,37.61
2018-05-09T02:27:32.662Z,37.41
2018-05-09T02:28:13.191Z,37.41
2018-05-09T02:28:53.712Z,37.32
2018-05-09T02:29:34.221Z,37.21
2018-05-09T02:30:14.752Z,37.49
2018-05-09T02:30:55.274Z,37.49
2018-05-09T02:31:35.798Z,37.4
2018-05-09T02:32:16.320Z,37.21
2018-05-09T02:32:56.828Z,37.21
2018-05-09T02:33:37.348Z,37.11
2018-05-09T02:34:17.873Z,37.21
2018-05-09T02:34:58.389Z,37.21
2018-05-09T02:35:38.935Z,37.59
2018-05-09T02:36:19.456Z,37.68
2018-05-09T02:36:59.981Z,37.78
2018-05-09T02:37:40.498Z,37.68
2018-05-09T02:38:21.036Z,37.49
2018-05-09T02:39:01.542Z,37.59
2018-05-09T02:39:42.064Z,37.59
2018-05-09T02:40:22.592Z,37.59
2018-05-09T02:41:03.116Z,37.78
2018-05-09T02:41:43.640Z,37.78
2018-05-09T02:42:24.169Z,37.68
2018-05-09T02:43:04.675Z,37.68
2018-05-09T02:43:45.217Z,37.78
2018-05-09T02:44:25.736Z,37.68
2018-05-09T02:45:06.244Z,37.78
2018-05-09T02:45:46.768Z,37.78
2018-05-09T02:46:27.291Z,37.68
2018-05-09T02:47:07.799Z,37.78
2018-05-09T02:47:48.305Z,37.59
2018-05-09T02:48:28.846Z,37.68
2018-05-09T02:49:09.331Z,37.68
2018-05-09T02:49:49.823Z,37.68
2018-05-09T02:50:30.311Z,37.78
2018-05-09T02:51:10.804Z,37.59
2018-05-09T02:51:51.317Z,37.78
2018-05-09T02:52:31.852Z,37.88
2018-05-09T02:53:12.380Z,37.88
2018-05-09T02:53:52.860Z,37.78
2018-05-09T02:54:33.413Z,37.76
2018-05-09T02:55:13.874Z,37.88
2018-05-09T02:55:54.422Z,37.88
2018-05-09T02:56:34.942Z,37.66
2018-05-09T02:57:15.468Z,38.05
2018-05-09T02:57:55.957Z,37.95
2018-05-09T02:58:36.439Z,38.24
2018-05-09T02:59:16.922Z,38.24
2018-05-09T03:02:06.011Z,37.76
2018-05-09T03:02:46.520Z,37.85
2018-05-09T03:03:27.040Z,37.85
2018-05-09T03:04:07.550Z,37.48
2018-05-09T03:04:48.469Z,37.85
2018-05-09T03:05:28.897Z,37.66
2018-05-09T03:06:09.517Z,37.76
2018-05-09T03:06:50.013Z,37.85
2018-05-09T03:07:30.559Z,37.95
2018-05-09T03:08:11.092Z,37.85
2018-05-09T03:08:51.617Z,38.14
2018-05-09T03:09:32.145Z,38.14
2018-05-09T03:10:12.668Z,38.14
2018-05-09T03:10:53.195Z,38.34
2018-05-09T03:11:33.718Z,38.34
2018-05-09T03:12:14.243Z,38.34
2018-05-09T03:12:54.773Z,38.34
2018-05-09T03:13:35.291Z,38.24
2018-05-09T03:14:15.816Z,38.24
2018-05-09T03:14:56.338Z,38.34
2018-05-09T03:15:36.872Z,38.34
2018-05-09T03:16:17.385Z,38.14
2018-05-09T03:16:57.916Z,38.34
2018-05-09T03:17:38.427Z,38.24
2018-05-09T03:18:18.952Z,38.24
2018-05-09T03:18:59.462Z,38.14
2018-05-09T03:19:39.992Z,38.14
2018-05-09T03:20:20.585Z,38.24
2018-05-09T03:21:01.050Z,38.14
2018-05-09T03:21:41.577Z,38.14
2018-05-09T03:22:22.105Z,38.24
2018-05-09T03:23:02.649Z,38.14
2018-05-09T03:23:43.207Z,38.24
2018-05-09T03:24:24.007Z,38.14
2018-05-09T03:25:04.684Z,38.05
2018-05-09T03:25:45.540Z,38.14
2018-05-09T03:26:26.154Z,38.05
2018-05-09T03:27:07.626Z,38.24
2018-05-09T03:27:48.620Z,38.05
2018-05-09T03:28:28.941Z,37.95
2018-05-09T03:29:09.459Z,38.14
2018-05-09T03:29:50.032Z,38.05
2018-05-09T03:30:31.576Z,38.14
2018-05-09T03:31:12.113Z,38.14
2018-05-09T03:31:52.664Z,38.14
2018-05-09T03:32:33.151Z,38.14
2018-05-09T03:33:14.423Z,38.34
2018-05-09T03:33:54.681Z,38.14
2018-05-09T03:34:35.204Z,38.24
2018-05-09T03:35:15.728Z,38.14
2018-05-09T03:35:56.363Z,38.24
2018-05-09T03:36:36.893Z,38.14
2018-05-09T03:37:18.035Z,38.14
2018-05-09T03:37:58.471Z,38.14
2018-05-09T03:38:38.999Z,38.24
2018-05-09T03:39:19.524Z,38.24
2018-05-09T03:40:00.057Z,38.24
2018-05-09T03:40:40.942Z,38.14
2018-05-09T03:41:21.480Z,38.14
2018-05-09T03:42:02.323Z,38.24
2018-05-09T03:42:42.619Z,38.14
2018-05-09T03:43:23.268Z,38.24
2018-05-09T03:44:04.229Z,38.14
2018-05-09T03:44:44.779Z,38.14
2018-05-09T03:45:25.306Z,38.14
2018-05-09T03:46:05.834Z,38.14
2018-05-09T03:46:46.359Z,38.14
2018-05-09T03:47:26.889Z,38.14
2018-05-09T03:48:07.415Z,38.14
2018-05-09T03:48:47.949Z,38.14
2018-05-09T03:49:28.475Z,38.24
2018-05-09T03:50:09.107Z,38.14
2018-05-09T03:50:49.765Z,38.14
2018-05-09T03:51:30.278Z,38.14
2018-05-09T03:52:10.805Z,38.14
2018-05-09T03:52:51.330Z,38.34
2018-05-09T03:53:31.887Z,38.24
2018-05-09T03:54:12.414Z,38.34
2018-05-09T03:54:52.974Z,38.24
2018-05-09T03:55:33.518Z,38.34
2018-05-09T03:56:14.091Z,38.24
2018-05-09T03:56:54.618Z,38.24
2018-05-09T03:57:35.146Z,38.24
2018-05-09T03:58:15.682Z,38.34
2018-05-09T03:58:56.204Z,38.34
2018-05-09T03:59:36.731Z,38.24
2018-05-09T04:00:17.261Z,38.43
2018-05-09T04:00:57.787Z,38.34
2018-05-09T04:01:38.314Z,38.43
2018-05-09T04:02:18.845Z,38.24
2018-05-09T04:02:59.372Z,38.34
2018-05-09T04:03:39.890Z,38.34
2018-05-09T04:04:20.416Z,38.24
2018-05-09T04:05:00.947Z,38.34
2018-05-09T04:05:41.475Z,38.24
2018-05-09T04:06:21.991Z,38.34
2018-05-09T04:07:02.524Z,38.24
2018-05-09T04:07:43.049Z,38.24
2018-05-09T04:08:23.578Z,38.24
2018-05-09T04:09:04.108Z,38.14
2018-05-09T04:09:44.629Z,38.17
2018-05-09T04:10:25.159Z,38.17
2018-05-09T04:11:05.697Z,38.35
2018-05-09T04:11:46.208Z,38.35
2018-05-09T04:12:26.733Z,37.85
2018-05-09T04:13:07.274Z,37.88
2018-05-09T04:13:47.790Z,37.88
2018-05-09T04:14:28.313Z,37.68
2018-05-09T04:15:08.831Z,37.88
2018-05-09T04:15:49.351Z,37.78
2018-05-09T04:16:29.879Z,37.68
2018-05-09T04:17:10.394Z,37.78
2018-05-09T04:17:50.924Z,37.78
2018-05-09T04:18:31.442Z,37.88
2018-05-09T04:19:11.970Z,37.88
2018-05-09T04:19:52.499Z,37.49
2018-05-09T04:20:33.033Z,37.68
2018-05-09T04:21:13.551Z,37.59
2018-05-09T04:21:54.081Z,37.68
2018-05-09T04:22:34.601Z,37.68
2018-05-09T04:23:15.126Z,37.68
2018-05-09T04:23:55.653Z,37.68
2018-05-09T04:24:36.182Z,37.88
2018-05-09T04:25:16.698Z,37.68
2018-05-09T04:25:57.214Z,37.68
2018-05-09T04:26:37.746Z,37.68
2018-05-09T04:27:18.270Z,37.68
2018-05-09T04:27:58.800Z,37.68
2018-05-09T04:28:39.327Z,37.78
2018-05-09T04:29:19.855Z,37.68
2018-05-09T04:30:00.382Z,37.68
2018-05-09T04:30:40.908Z,37.78
2018-05-09T04:31:21.470Z,37.59
2018-05-09T04:32:01.949Z,37.59
2018-05-09T04:32:42.482Z,37.59
2018-05-09T04:33:23.006Z,37.68
2018-05-09T04:34:03.533Z,37.68
2018-05-09T04:34:44.059Z,37.68
2018-05-09T04:35:24.583Z,37.68
2018-05-09T04:36:05.108Z,37.59
2018-05-09T04:36:45.633Z,37.68
2018-05-09T04:37:26.164Z,37.59
2018-05-09T04:38:06.684Z,37.78
2018-05-09T04:38:47.209Z,37.23
2018-05-09T04:39:27.736Z,37.23
2018-05-09T04:40:08.256Z,37.23
2018-05-09T04:40:48.788Z,37.32
2018-05-09T04:41:29.313Z,37.32
2018-05-09T04:42:09.842Z,37.23
2018-05-09T04:42:50.368Z,37.41
2018-05-09T04:43:30.897Z,37.23
2018-05-09T04:44:11.426Z,37.51
2018-05-09T04:44:51.956Z,37.32
2018-05-09T04:45:32.484Z,37.51
2018-05-09T04:46:13.006Z,37.32
2018-05-09T04:46:53.534Z,37.41
2018-05-09T04:47:34.068Z,37.51
2018-05-09T04:48:14.595Z,37.32
2018-05-09T04:48:55.123Z,37.32
2018-05-09T04:49:35.651Z,37.32
2018-05-09T04:50:16.175Z,37.32
2018-05-09T04:50:56.711Z,37.41
2018-05-09T04:51:37.237Z,37.41
2018-05-09T04:52:17.761Z,37.32
2018-05-09T04:52:58.291Z,37.41
2018-05-09T04:53:38.820Z,37.53
2018-05-09T04:54:19.348Z,37.41
2018-05-09T04:54:59.952Z,37.23
2018-05-09T04:55:40.548Z,37.43
2018-05-09T04:56:21.244Z,37.72
2018-05-09T04:57:01.775Z,37.34
2018-05-09T04:57:42.303Z,37.34
2018-05-09T04:58:22.827Z,37.82
2018-05-09T04:59:03.760Z,37.24
2018-05-09T04:59:44.135Z,37.63
2018-05-09T05:00:24.625Z,37.34
2018-05-09T05:01:05.151Z,37.34
2018-05-09T05:01:45.613Z,37.34
2018-05-09T05:02:26.120Z,37.43
2018-05-09T05:03:06.640Z,37.24
2018-05-09T05:03:47.169Z,37.24
2018-05-09T05:04:27.701Z,37.24
2018-05-09T05:05:08.226Z,37.24
2018-05-09T05:05:48.749Z,37.15
2018-05-09T05:06:29.280Z,37.65
2018-05-09T05:07:09.811Z,37.53
2018-05-09T05:07:50.338Z,37.43
2018-05-09T05:08:30.866Z,37.53
2018-05-09T05:09:11.388Z,37.43
2018-05-09T05:09:51.919Z,37.53
2018-05-09T05:10:32.449Z,37.55
2018-05-09T05:11:12.976Z,37.26
2018-05-09T05:11:53.504Z,37.63
2018-05-09T05:12:34.032Z,37.65
2018-05-09T05:13:14.563Z,37.16
2018-05-09T05:13:55.089Z,37.26
2018-05-09T05:14:35.623Z,37.16
2018-05-09T05:15:16.151Z,37.26
2018-05-09T05:15:56.682Z,37.26
2018-05-09T05:16:37.206Z,37.26
2018-05-09T05:17:17.734Z,37.26
2018-05-09T05:17:58.264Z,37.26
2018-05-09T05:18:38.792Z,37.36
2018-05-09T05:19:19.321Z,37.26
2018-05-09T05:19:59.853Z,37.36
2018-05-09T05:20:40.377Z,37.74
2018-05-09T05:21:20.905Z,37.55
2018-05-09T05:22:01.435Z,37.36
2018-05-09T05:22:41.962Z,37.36
2018-05-09T05:23:22.492Z,37.26
2018-05-09T05:24:03.026Z,37.26
2018-05-09T05:24:43.557Z,37.45
2018-05-09T05:25:24.098Z,37.28
2018-05-09T05:26:04.635Z,37.38
2018-05-09T05:26:45.162Z,37.57
2018-05-09T05:27:25.696Z,37.38
2018-05-09T05:28:06.222Z,37.09
2018-05-09T05:28:46.749Z,37.28
2018-05-09T05:29:27.283Z,37.18
2018-05-09T05:30:07.814Z,37.28
2018-05-09T05:30:48.337Z,37.38
2018-05-09T05:31:28.869Z,37.28
2018-05-09T05:32:09.398Z,37.09
2018-05-09T05:32:49.961Z,37.28
2018-05-09T05:33:30.451Z,37.01
2018-05-09T05:34:10.977Z,36.99
2018-05-09T05:34:51.507Z,37.11
2018-05-09T05:35:32.027Z,37.01
2018-05-09T05:36:12.557Z,37.01
2018-05-09T05:36:53.089Z,37.11
2018-05-09T05:37:33.617Z,36.91
2018-05-09T05:38:14.143Z,37.01
2018-05-09T05:38:54.677Z,37.11
2018-05-09T05:39:35.197Z,36.82
2018-05-09T05:40:15.730Z,37.11
2018-05-09T05:40:56.257Z,36.91
2018-05-09T05:41:36.792Z,36.84
2018-05-09T05:42:17.317Z,36.65
2018-05-09T05:42:57.845Z,36.93
2018-05-09T05:43:38.375Z,36.84
2018-05-09T05:44:18.908Z,36.74
2018-05-09T05:44:59.544Z,36.74
2018-05-09T05:45:39.969Z,36.55
2018-05-09T05:46:20.498Z,36.55
2018-05-09T05:47:01.028Z,36.57
2018-05-09T05:47:41.560Z,36.47
2018-05-09T05:48:22.101Z,36.47
2018-05-09T05:49:02.618Z,36.28
2018-05-09T05:49:43.155Z,36.28
2018-05-09T05:50:23.704Z,36.38
2018-05-09T05:51:04.210Z,36.3
2018-05-09T05:51:44.738Z,36.2
2018-05-09T05:52:25.265Z,36.01
2018-05-09T05:53:05.794Z,35.91
2018-05-09T05:53:46.326Z,35.93
2018-05-09T05:54:26.854Z,35.64
2018-05-09T05:55:07.390Z,35.93
2018-05-09T05:55:47.919Z,35.93
2018-05-09T05:56:28.448Z,35.76
2018-05-09T05:57:08.975Z,35.47
2018-05-09T05:57:49.502Z,35.47
2018-05-09T05:58:30.025Z,35.38
2018-05-09T05:59:10.548Z,35.1
2018-05-09T05:59:51.065Z,35.1
2018-05-09T06:00:31.593Z,35.22
2018-05-09T06:01:12.124Z,34.92
2018-05-09T06:01:52.662Z,34.54
2018-05-09T06:02:33.185Z,34.45
2018-05-09T06:03:13.710Z,34.27
2018-05-09T06:03:54.228Z,34.38
2018-05-09T06:04:34.759Z,34.09
2018-05-09T06:05:15.325Z,33.81
2018-05-09T06:05:55.795Z,33.53
2018-05-09T06:06:36.325Z,33.53
2018-05-09T06:07:16.851Z,33.44
2018-05-09T06:07:57.423Z,33.44
2018-05-09T06:08:37.920Z,33.45
2018-05-09T06:09:18.451Z,33.45
2018-05-09T06:09:58.975Z,33.09
2018-05-09T06:10:39.505Z,33.18
2018-05-09T06:11:20.035Z,33.18
2018-05-09T06:12:00.564Z,33.09
2018-05-09T06:12:41.094Z,32.81
2018-05-09T06:13:21.620Z,32.62
2018-05-09T06:14:02.145Z,32.81
2018-05-09T06:14:42.675Z,32.82
2018-05-09T06:15:23.207Z,32.82
2018-05-09T06:16:03.731Z,32.44
2018-05-09T06:16:44.253Z,32.75
2018-05-09T06:17:24.776Z,32.56
2018-05-09T06:18:05.308Z,32.17
2018-05-09T06:18:45.834Z,32.26
2018-05-09T06:19:26.367Z,32.09
2018-05-09T06:20:06.889Z,32.09
2018-05-09T06:20:47.425Z,32.09
2018-05-09T06:21:27.953Z,31.91
2018-05-09T06:22:08.475Z,32.01
2018-05-09T06:22:49.009Z,31.81
2018-05-09T06:23:29.545Z,32.01
2018-05-09T06:24:10.132Z,31.91
2018-05-09T06:24:50.602Z,31.81
2018-05-09T06:25:31.126Z,32.12
2018-05-09T06:26:11.646Z,31.73
2018-05-09T06:26:52.182Z,31.93
2018-05-09T06:27:32.716Z,31.63
2018-05-09T06:28:13.252Z,31.73
2018-05-09T06:28:53.780Z,31.65
2018-05-09T06:29:34.312Z,31.74
2018-05-09T06:30:14.845Z,31.65
2018-05-09T06:30:55.489Z,31.56
2018-05-09T06:31:35.899Z,31.76
2018-05-09T06:32:16.517Z,31.57
2018-05-09T06:32:56.959Z,31.47
2018-05-09T06:33:37.487Z,31.57
2018-05-09T06:34:18.012Z,31.57
2018-05-09T06:34:58.539Z,31.59
2018-05-09T06:35:39.072Z,31.59
2018-05-09T06:36:19.606Z,31.59
2018-05-09T06:37:00.135Z,31.29
2018-05-09T06:37:40.741Z,31.5
2018-05-09T06:38:21.188Z,31.31
2018-05-09T06:39:01.720Z,31.21
2018-05-09T06:39:42.245Z,31.23
2018-05-09T06:40:22.775Z,31.23
2018-05-09T06:41:03.334Z,31.04
2018-05-09T06:41:43.942Z,31.23
2018-05-09T06:42:24.396Z,30.95
2018-05-09T06:43:04.924Z,30.85
2018-05-09T06:43:45.493Z,30.87
2018-05-09T06:44:25.983Z,30.68
2018-05-09T06:45:06.496Z,30.77
2018-05-09T06:45:47.028Z,30.68
2018-05-09T06:46:27.559Z,30.59
2018-05-09T06:47:08.092Z,30.5
2018-05-09T06:47:48.617Z,30.4
2018-05-09T06:48:29.152Z,30.32
2018-05-09T06:49:09.683Z,30.04
2018-05-09T06:49:50.216Z,30.33
2018-05-09T06:50:30.747Z,30.15
2018-05-09T06:51:11.277Z,29.76
2018-05-09T06:51:51.806Z,29.58
2018-05-09T06:52:32.321Z,29.4
2018-05-09T06:53:12.857Z,28.93
2018-05-09T06:53:53.389Z,29.03
2018-05-09T06:54:33.930Z,28.65
2018-05-09T06:55:14.451Z,28.65
2018-05-09T06:55:55.856Z,28.47
2018-05-09T06:56:36.389Z,28.19
2018-05-09T06:57:16.923Z,28.09
2018-05-09T06:57:57.450Z,28.19
2018-05-09T06:58:37.985Z,27.72
2018-05-09T06:59:18.521Z,27.93
2018-05-09T06:59:59.080Z,27.93
2018-05-09T07:00:39.573Z,27.45
2018-05-09T07:01:20.095Z,27.56
2018-05-09T07:02:00.626Z,27.58
2018-05-09T07:02:41.157Z,27
2018-05-09T07:03:21.679Z,26.53
2018-05-09T07:04:02.207Z,25.96
2018-05-09T07:04:42.744Z,25.6
2018-05-09T07:05:23.267Z,25.12
2018-05-09T07:06:03.800Z,24.47
2018-05-09T07:06:44.636Z,23.61
2018-05-09T07:07:24.865Z,22.75
2018-05-09T07:08:05.395Z,21.7
2018-05-09T07:08:45.927Z,21.34
2018-05-09T07:09:26.472Z,20.86
2018-05-09T07:10:06.991Z,20
2018-05-09T07:10:47.520Z,19.32
2018-05-09T07:11:28.060Z,19.44
2018-05-09T07:12:08.590Z,19.06
2018-05-09T07:12:49.124Z,18.68
2018-05-09T07:13:29.646Z,18.3
2018-05-09T07:14:10.194Z,18.12
2018-05-09T07:14:50.705Z,18.02
2018-05-09T07:15:31.254Z,17.74
2018-05-09T07:16:11.789Z,17.55
2018-05-09T07:16:52.322Z,17.26
2018-05-09T07:17:32.844Z,16.97
2018-05-09T07:18:13.418Z,16.98
2018-05-09T07:18:53.908Z,16.79
2018-05-09T07:19:34.445Z,16.8
2018-05-09T07:20:14.969Z,17
2018-05-09T07:20:55.496Z,16.71
2018-05-09T07:21:36.017Z,17.21
2018-05-09T07:22:16.637Z,17.11
2018-05-09T07:22:57.091Z,17.11
2018-05-09T07:23:37.601Z,17.22
2018-05-09T07:24:18.129Z,17.6
2018-05-09T07:24:58.661Z,18.01
2018-05-09T07:25:39.195Z,18.79
2018-05-09T07:26:19.732Z,18.88
2018-05-09T07:27:00.258Z,19.1
2018-05-09T07:27:40.793Z,19.51
2018-05-09T07:28:21.324Z,18.62
2018-05-09T07:29:01.868Z,18.63
2018-05-09T07:29:42.404Z,18.45
2018-05-09T07:30:22.937Z,18.18
2018-05-09T07:31:03.465Z,17.71
2018-05-09T07:31:44.006Z,17.12
2018-05-09T07:32:24.524Z,16.64
2018-05-09T07:33:05.056Z,16.47
2018-05-09T07:33:45.590Z,16.28
2018-05-09T07:34:26.124Z,16
2018-05-09T07:35:06.657Z,15.51
2018-05-09T07:35:47.193Z,15.72
2018-05-09T07:36:27.727Z,15.33
2018-05-09T07:37:08.273Z,15.14
2018-05-09T07:37:48.822Z,15.15
2018-05-09T07:38:29.362Z,14.86
2018-05-09T07:39:09.887Z,14.87
2018-05-09T07:39:50.425Z,14.78
2018-05-09T07:40:30.967Z,14.69
2018-05-09T07:41:11.497Z,14.7
2018-05-09T07:41:52.034Z,14.2
2018-05-09T07:42:32.577Z,14.42
2018-05-09T07:43:13.116Z,14.42
2018-05-09T07:43:53.653Z,14.42
2018-05-09T07:44:34.194Z,14.54
2018-05-09T07:45:14.739Z,14.04
2018-05-09T07:45:55.274Z,14.14
2018-05-09T07:46:35.813Z,14.06
2018-05-09T07:47:16.355Z,13.65
2018-05-09T07:47:57.082Z,13.77
2018-05-09T07:48:37.468Z,13.98
2018-05-09T07:49:18.013Z,13.78
2018-05-09T07:49:58.546Z,13.9
2018-05-09T07:50:39.091Z,13.39
2018-05-09T07:51:19.637Z,13.5
2018-05-09T07:52:00.174Z,13.21
2018-05-09T07:52:40.713Z,12.91
2018-05-09T07:53:21.251Z,13.13
2018-05-09T07:54:01.794Z,13.03
2018-05-09T07:54:42.334Z,13.04
2018-05-09T07:55:22.879Z,13.13
2018-05-09T07:56:03.421Z,12.93
2018-05-09T07:56:43.957Z,12.94
2018-05-09T07:57:24.497Z,12.74
2018-05-09T07:58:05.039Z,12.54
2018-05-09T07:58:45.575Z,12.54
2018-05-09T07:59:26.115Z,12.43
2018-05-09T08:00:06.660Z,12.65
2018-05-09T08:00:47.201Z,12.65
2018-05-09T08:01:27.737Z,12.55
2018-05-09T08:02:08.279Z,12.24
2018-05-09T08:02:48.828Z,12.04
2018-05-09T08:03:29.370Z,12.26
2018-05-09T08:04:09.913Z,12.16
2018-05-09T08:04:50.458Z,11.65
2018-05-09T08:05:31.006Z,11.97
2018-05-09T08:06:11.539Z,11.66
2018-05-09T08:06:52.094Z,11.56
2018-05-09T08:07:32.646Z,11.57
2018-05-09T08:08:13.193Z,11.79
2018-05-09T08:08:53.735Z,11.59
2018-05-09T08:09:34.272Z,11.07
2018-05-09T08:10:14.811Z,11.18
2018-05-09T08:10:55.357Z,11.3
2018-05-09T08:11:35.899Z,11.41
2018-05-09T08:12:16.454Z,11.41
2018-05-09T08:12:57.028Z,11
2018-05-09T08:13:37.538Z,11.11
2018-05-09T08:14:18.070Z,10.91
2018-05-09T08:14:58.619Z,10.81
2018-05-09T08:15:39.159Z,10.5
2018-05-09T08:16:19.703Z,10.61
2018-05-09T08:17:00.248Z,10.61
2018-05-09T08:17:40.791Z,10.62
2018-05-09T08:18:21.336Z,10.11
2018-05-09T08:19:01.873Z,10.42
2018-05-09T08:19:42.414Z,10.33
2018-05-09T08:20:22.959Z,10.33
2018-05-09T08:21:03.510Z,10.13
2018-05-09T08:21:44.061Z,10.14
2018-05-09T08:22:24.604Z,9.83
2018-05-09T08:23:05.149Z,9.62
2018-05-09T08:23:45.715Z,9.84
2018-05-09T08:24:26.233Z,9.74
2018-05-09T08:25:06.784Z,9.63
2018-05-09T08:25:47.324Z,9.42
2018-05-09T08:26:27.866Z,9.64
2018-05-09T08:27:08.406Z,9.65
2018-05-09T08:27:48.952Z,9.44
2018-05-09T08:28:29.503Z,9.44
2018-05-09T08:29:10.036Z,9.23
2018-05-09T08:29:50.585Z,9.12
2018-05-09T08:30:31.127Z,9.45
2018-05-09T08:31:11.675Z,8.82
2018-05-09T08:31:52.219Z,9.04
2018-05-09T08:32:32.769Z,9.15
2018-05-09T08:33:13.317Z,8.83
2018-05-09T08:33:53.870Z,8.94
2018-05-09T08:34:34.401Z,9.05
2018-05-09T08:35:14.950Z,8.95
2018-05-09T08:35:55.495Z,8.95
2018-05-09T08:36:36.107Z,8.95
2018-05-09T08:37:16.597Z,8.75
2018-05-09T08:37:57.143Z,8.85
2018-05-09T08:38:37.686Z,8.32
2018-05-09T08:39:18.219Z,8.54
2018-05-09T08:39:58.771Z,8.75
2018-05-09T08:40:39.271Z,8.33
2018-05-09T08:41:19.809Z,8.44
2018-05-09T08:42:00.337Z,8.44
2018-05-09T08:42:40.910Z,8.44
2018-05-09T08:43:21.528Z,8.12
2018-05-09T08:44:02.079Z,8.23
2018-05-09T08:44:42.533Z,8.12
2018-05-09T08:47:36.784Z,8.14
2018-05-09T08:48:17.331Z,8.14